sensor_id;sensor_type;location;lat;lon;timestamp;temperature;humidity
70947;DHT22;58605;48.700;8.760;2023-08-24T00:01:04;17.70;88.30
70947;DHT22;58605;48.700;8.760;2023-08-24T00:03:30;17.70;88.40
70947;DHT22;58605;48.700;8.760;2023-08-24T00:05:56;17.70;88.50
70947;DHT22;58605;48.700;8.760;2023-08-24T00:08:22;17.80;87.80
70947;DHT22;58605;48.700;8.760;2023-08-24T00:10:48;17.90;88.40
70947;DHT22;58605;48.700;8.760;2023-08-24T00:13:16;17.70;88.20
70947;DHT22;58605;48.700;8.760;2023-08-24T00:15:43;17.70;88.70
70947;DHT22;58605;48.700;8.760;2023-08-24T00:18:10;17.60;88.40
70947;DHT22;58605;48.700;8.760;2023-08-24T00:20:36;17.60;88.50
70947;DHT22;58605;48.700;8.760;2023-08-24T00:23:03;17.50;88.70
70947;DHT22;58605;48.700;8.760;2023-08-24T00:25:30;17.50;88.70
70947;DHT22;58605;48.700;8.760;2023-08-24T00:27:56;17.50;88.90
70947;DHT22;58605;48.700;8.760;2023-08-24T00:30:24;17.50;89.10
70947;DHT22;58605;48.700;8.760;2023-08-24T00:32:50;17.40;88.60
70947;DHT22;58605;48.700;8.760;2023-08-24T00:35:16;17.40;88.90
70947;DHT22;58605;48.700;8.760;2023-08-24T00:37:42;17.50;89.70
70947;DHT22;58605;48.700;8.760;2023-08-24T00:40:09;17.60;89.70
70947;DHT22;58605;48.700;8.760;2023-08-24T00:42:37;17.60;88.60
70947;DHT22;58605;48.700;8.760;2023-08-24T00:45:05;17.40;88.70
70947;DHT22;58605;48.700;8.760;2023-08-24T00:47:34;17.40;89.90
70947;DHT22;58605;48.700;8.760;2023-08-24T00:50:00;17.40;89.80
70947;DHT22;58605;48.700;8.760;2023-08-24T00:52:29;17.50;89.40
70947;DHT22;58605;48.700;8.760;2023-08-24T00:54:57;17.40;88.70
70947;DHT22;58605;48.700;8.760;2023-08-24T00:57:24;17.40;89.30
70947;DHT22;58605;48.700;8.760;2023-08-24T00:59:50;17.40;89.40
70947;DHT22;58605;48.700;8.760;2023-08-24T01:02:16;17.30;89.00
70947;DHT22;58605;48.700;8.760;2023-08-24T01:04:44;17.20;89.10
70947;DHT22;58605;48.700;8.760;2023-08-24T01:07:12;17.10;89.50
70947;DHT22;58605;48.700;8.760;2023-08-24T01:09:39;17.10;90.10
70947;DHT22;58605;48.700;8.760;2023-08-24T01:12:13;17.10;89.00
70947;DHT22;58605;48.700;8.760;2023-08-24T01:14:47;17.10;89.10
70947;DHT22;58605;48.700;8.760;2023-08-24T01:17:20;17.10;89.50
70947;DHT22;58605;48.700;8.760;2023-08-24T01:19:50;17.10;89.40
70947;DHT22;58605;48.700;8.760;2023-08-24T01:22:30;17.10;89.40
70947;DHT22;58605;48.700;8.760;2023-08-24T01:25:05;17.10;89.70
70947;DHT22;58605;48.700;8.760;2023-08-24T01:27:36;17.00;89.60
70947;DHT22;58605;48.700;8.760;2023-08-24T01:30:02;17.00;89.60
70947;DHT22;58605;48.700;8.760;2023-08-24T01:32:30;16.90;89.80
70947;DHT22;58605;48.700;8.760;2023-08-24T01:34:58;16.90;90.10
70947;DHT22;58605;48.700;8.760;2023-08-24T01:37:24;16.90;90.10
70947;DHT22;58605;48.700;8.760;2023-08-24T01:39:54;16.90;90.00
70947;DHT22;58605;48.700;8.760;2023-08-24T01:42:26;16.80;89.90
70947;DHT22;58605;48.700;8.760;2023-08-24T01:44:57;16.70;90.50
70947;DHT22;58605;48.700;8.760;2023-08-24T01:47:26;16.80;90.20
70947;DHT22;58605;48.700;8.760;2023-08-24T01:49:53;16.90;90.30
70947;DHT22;58605;48.700;8.760;2023-08-24T01:52:20;16.90;90.30
70947;DHT22;58605;48.700;8.760;2023-08-24T01:54:47;16.90;90.00
70947;DHT22;58605;48.700;8.760;2023-08-24T01:57:14;16.90;90.50
70947;DHT22;58605;48.700;8.760;2023-08-24T01:59:40;16.90;90.30
70947;DHT22;58605;48.700;8.760;2023-08-24T02:02:08;16.90;90.10
70947;DHT22;58605;48.700;8.760;2023-08-24T02:04:34;16.90;90.30
70947;DHT22;58605;48.700;8.760;2023-08-24T02:07:00;16.90;90.00
70947;DHT22;58605;48.700;8.760;2023-08-24T02:09:26;17.00;90.10
70947;DHT22;58605;48.700;8.760;2023-08-24T02:11:52;17.00;90.20
70947;DHT22;58605;48.700;8.760;2023-08-24T02:14:18;17.00;90.20
70947;DHT22;58605;48.700;8.760;2023-08-24T02:16:44;17.10;90.10
70947;DHT22;58605;48.700;8.760;2023-08-24T02:19:12;17.10;90.00
70947;DHT22;58605;48.700;8.760;2023-08-24T02:21:39;17.20;90.00
70947;DHT22;58605;48.700;8.760;2023-08-24T02:24:06;17.20;90.10
70947;DHT22;58605;48.700;8.760;2023-08-24T02:26:32;17.20;90.10
70947;DHT22;58605;48.700;8.760;2023-08-24T02:28:59;17.30;89.90
70947;DHT22;58605;48.700;8.760;2023-08-24T02:31:25;17.20;89.80
70947;DHT22;58605;48.700;8.760;2023-08-24T02:33:51;17.10;89.80
70947;DHT22;58605;48.700;8.760;2023-08-24T02:36:19;17.00;90.00
70947;DHT22;58605;48.700;8.760;2023-08-24T02:38:45;17.00;90.20
70947;DHT22;58605;48.700;8.760;2023-08-24T02:41:12;16.90;90.30
70947;DHT22;58605;48.700;8.760;2023-08-24T02:43:40;16.90;90.30
70947;DHT22;58605;48.700;8.760;2023-08-24T02:46:07;16.90;90.50
70947;DHT22;58605;48.700;8.760;2023-08-24T02:48:34;17.10;90.60
70947;DHT22;58605;48.700;8.760;2023-08-24T02:51:01;17.00;90.30
70947;DHT22;58605;48.700;8.760;2023-08-24T02:53:30;17.00;90.50
70947;DHT22;58605;48.700;8.760;2023-08-24T02:55:56;17.00;90.60
70947;DHT22;58605;48.700;8.760;2023-08-24T02:58:22;17.00;90.60
70947;DHT22;58605;48.700;8.760;2023-08-24T03:00:48;17.00;90.60
70947;DHT22;58605;48.700;8.760;2023-08-24T03:03:15;17.20;90.80
70947;DHT22;58605;48.700;8.760;2023-08-24T03:05:41;17.30;90.40
70947;DHT22;58605;48.700;8.760;2023-08-24T03:08:07;17.30;90.20
70947;DHT22;58605;48.700;8.760;2023-08-24T03:10:36;17.20;90.10
70947;DHT22;58605;48.700;8.760;2023-08-24T03:13:03;17.10;89.80
70947;DHT22;58605;48.700;8.760;2023-08-24T03:15:29;17.00;90.00
70947;DHT22;58605;48.700;8.760;2023-08-24T03:17:57;16.90;90.10
70947;DHT22;58605;48.700;8.760;2023-08-24T03:20:23;16.90;90.40
70947;DHT22;58605;48.700;8.760;2023-08-24T03:22:49;17.00;90.60
70947;DHT22;58605;48.700;8.760;2023-08-24T03:25:15;17.00;90.30
70947;DHT22;58605;48.700;8.760;2023-08-24T03:27:42;16.80;90.10
70947;DHT22;58605;48.700;8.760;2023-08-24T03:30:09;16.80;90.40
70947;DHT22;58605;48.700;8.760;2023-08-24T03:32:35;16.90;90.30
70947;DHT22;58605;48.700;8.760;2023-08-24T03:35:01;17.00;90.50
70947;DHT22;58605;48.700;8.760;2023-08-24T03:37:29;16.90;90.30
70947;DHT22;58605;48.700;8.760;2023-08-24T03:39:55;16.90;90.50
70947;DHT22;58605;48.700;8.760;2023-08-24T03:42:21;16.90;90.50
70947;DHT22;58605;48.700;8.760;2023-08-24T03:44:48;16.90;90.50
70947;DHT22;58605;48.700;8.760;2023-08-24T03:47:14;17.00;90.30
70947;DHT22;58605;48.700;8.760;2023-08-24T03:49:43;17.10;90.40
70947;DHT22;58605;48.700;8.760;2023-08-24T03:52:09;17.10;90.40
70947;DHT22;58605;48.700;8.760;2023-08-24T03:54:35;17.00;90.40
70947;DHT22;58605;48.700;8.760;2023-08-24T03:57:01;17.10;90.70
70947;DHT22;58605;48.700;8.760;2023-08-24T03:59:27;17.10;90.70
70947;DHT22;58605;48.700;8.760;2023-08-24T04:01:55;17.20;90.20
70947;DHT22;58605;48.700;8.760;2023-08-24T04:04:21;17.20;90.10
70947;DHT22;58605;48.700;8.760;2023-08-24T04:06:47;17.10;90.20
70947;DHT22;58605;48.700;8.760;2023-08-24T04:09:15;17.20;90.50
70947;DHT22;58605;48.700;8.760;2023-08-24T04:11:41;17.10;90.40
70947;DHT22;58605;48.700;8.760;2023-08-24T04:14:07;17.10;90.40
70947;DHT22;58605;48.700;8.760;2023-08-24T04:16:40;17.10;90.60
70947;DHT22;58605;48.700;8.760;2023-08-24T04:19:09;17.20;90.50
70947;DHT22;58605;48.700;8.760;2023-08-24T04:21:35;17.30;90.20
70947;DHT22;58605;48.700;8.760;2023-08-24T04:24:01;17.40;89.70
70947;DHT22;58605;48.700;8.760;2023-08-24T04:26:27;17.40;88.60
70947;DHT22;58605;48.700;8.760;2023-08-24T04:28:53;17.30;89.00
70947;DHT22;58605;48.700;8.760;2023-08-24T04:31:19;17.10;90.00
70947;DHT22;58605;48.700;8.760;2023-08-24T04:33:45;17.00;90.10
70947;DHT22;58605;48.700;8.760;2023-08-24T04:36:13;16.90;90.10
70947;DHT22;58605;48.700;8.760;2023-08-24T04:38:39;16.80;90.30
70947;DHT22;58605;48.700;8.760;2023-08-24T04:43:33;16.80;90.60
70947;DHT22;58605;48.700;8.760;2023-08-24T04:45:59;16.80;90.50
70947;DHT22;58605;48.700;8.760;2023-08-24T04:48:26;16.70;90.50
70947;DHT22;58605;48.700;8.760;2023-08-24T04:50:52;16.70;90.40
70947;DHT22;58605;48.700;8.760;2023-08-24T04:53:23;16.70;90.50
70947;DHT22;58605;48.700;8.760;2023-08-24T04:55:50;16.80;90.50
70947;DHT22;58605;48.700;8.760;2023-08-24T04:58:16;16.80;90.20
70947;DHT22;58605;48.700;8.760;2023-08-24T05:00:42;16.80;90.40
70947;DHT22;58605;48.700;8.760;2023-08-24T05:03:09;16.80;90.40
70947;DHT22;58605;48.700;8.760;2023-08-24T05:05:35;16.80;90.60
70947;DHT22;58605;48.700;8.760;2023-08-24T05:08:03;16.80;90.50
70947;DHT22;58605;48.700;8.760;2023-08-24T05:10:33;16.90;91.10
70947;DHT22;58605;48.700;8.760;2023-08-24T05:12:59;17.00;90.90
70947;DHT22;58605;48.700;8.760;2023-08-24T05:15:26;17.20;90.40
70947;DHT22;58605;48.700;8.760;2023-08-24T05:17:52;17.30;90.30
70947;DHT22;58605;48.700;8.760;2023-08-24T05:20:20;17.30;90.50
70947;DHT22;58605;48.700;8.760;2023-08-24T05:22:46;17.30;90.90
70947;DHT22;58605;48.700;8.760;2023-08-24T05:25:13;17.50;90.80
70947;DHT22;58605;48.700;8.760;2023-08-24T05:27:40;17.70;90.20
70947;DHT22;58605;48.700;8.760;2023-08-24T05:30:07;18.00;88.90
70947;DHT22;58605;48.700;8.760;2023-08-24T05:32:34;18.10;87.70
70947;DHT22;58605;48.700;8.760;2023-08-24T05:35:05;18.10;87.30
70947;DHT22;58605;48.700;8.760;2023-08-24T05:37:31;18.10;87.60
70947;DHT22;58605;48.700;8.760;2023-08-24T05:39:58;18.00;87.00
70947;DHT22;58605;48.700;8.760;2023-08-24T05:42:24;17.90;87.40
70947;DHT22;58605;48.700;8.760;2023-08-24T05:44:52;17.60;88.20
70947;DHT22;58605;48.700;8.760;2023-08-24T05:47:18;17.60;88.80
70947;DHT22;58605;48.700;8.760;2023-08-24T05:49:44;17.50;89.10
70947;DHT22;58605;48.700;8.760;2023-08-24T05:52:10;17.30;89.20
70947;DHT22;58605;48.700;8.760;2023-08-24T05:54:37;17.20;89.20
70947;DHT22;58605;48.700;8.760;2023-08-24T05:57:04;17.20;89.30
70947;DHT22;58605;48.700;8.760;2023-08-24T05:59:31;17.10;90.00
70947;DHT22;58605;48.700;8.760;2023-08-24T06:01:59;17.20;90.20
70947;DHT22;58605;48.700;8.760;2023-08-24T06:04:25;17.20;90.00
70947;DHT22;58605;48.700;8.760;2023-08-24T06:06:51;17.30;90.80
70947;DHT22;58605;48.700;8.760;2023-08-24T06:09:18;17.40;90.70
70947;DHT22;58605;48.700;8.760;2023-08-24T06:11:44;17.60;90.60
70947;DHT22;58605;48.700;8.760;2023-08-24T06:14:10;17.70;90.10
70947;DHT22;58605;48.700;8.760;2023-08-24T06:16:39;17.80;90.00
70947;DHT22;58605;48.700;8.760;2023-08-24T06:19:06;17.90;90.00
70947;DHT22;58605;48.700;8.760;2023-08-24T06:21:32;17.90;89.60
70947;DHT22;58605;48.700;8.760;2023-08-24T06:23:59;18.00;89.10
70947;DHT22;58605;48.700;8.760;2023-08-24T06:26:26;18.00;88.00
70947;DHT22;58605;48.700;8.760;2023-08-24T06:28:52;18.10;88.20
70947;DHT22;58605;48.700;8.760;2023-08-24T06:31:19;18.10;88.10
70947;DHT22;58605;48.700;8.760;2023-08-24T06:33:45;18.10;88.90
70947;DHT22;58605;48.700;8.760;2023-08-24T06:36:12;18.10;89.50
70947;DHT22;58605;48.700;8.760;2023-08-24T06:38:38;18.10;88.90
70947;DHT22;58605;48.700;8.760;2023-08-24T06:41:05;18.10;88.70
70947;DHT22;58605;48.700;8.760;2023-08-24T06:43:31;18.20;88.90
70947;DHT22;58605;48.700;8.760;2023-08-24T06:45:57;18.30;87.80
70947;DHT22;58605;48.700;8.760;2023-08-24T06:48:29;18.30;87.00
70947;DHT22;58605;48.700;8.760;2023-08-24T06:50:55;18.30;86.20
70947;DHT22;58605;48.700;8.760;2023-08-24T06:53:23;18.40;86.40
70947;DHT22;58605;48.700;8.760;2023-08-24T06:55:54;18.60;87.90
70947;DHT22;58605;48.700;8.760;2023-08-24T06:58:20;18.80;90.00
70947;DHT22;58605;48.700;8.760;2023-08-24T07:00:46;19.20;89.60
70947;DHT22;58605;48.700;8.760;2023-08-24T07:03:12;19.50;86.90
70947;DHT22;58605;48.700;8.760;2023-08-24T07:05:38;19.80;86.30
70947;DHT22;58605;48.700;8.760;2023-08-24T07:08:05;20.00;86.40
70947;DHT22;58605;48.700;8.760;2023-08-24T07:10:32;19.90;85.60
70947;DHT22;58605;48.700;8.760;2023-08-24T07:12:59;19.90;85.30
70947;DHT22;58605;48.700;8.760;2023-08-24T07:15:25;20.10;85.40
70947;DHT22;58605;48.700;8.760;2023-08-24T07:17:51;20.30;84.80
70947;DHT22;58605;48.700;8.760;2023-08-24T07:20:17;20.40;84.90
70947;DHT22;58605;48.700;8.760;2023-08-24T07:22:43;20.40;83.00
70947;DHT22;58605;48.700;8.760;2023-08-24T07:25:09;20.50;84.20
70947;DHT22;58605;48.700;8.760;2023-08-24T07:27:38;20.70;82.80
70947;DHT22;58605;48.700;8.760;2023-08-24T07:30:05;20.90;82.70
70947;DHT22;58605;48.700;8.760;2023-08-24T07:32:32;21.00;81.80
70947;DHT22;58605;48.700;8.760;2023-08-24T07:34:58;21.00;81.10
70947;DHT22;58605;48.700;8.760;2023-08-24T07:37:25;21.10;81.50
70947;DHT22;58605;48.700;8.760;2023-08-24T07:39:51;21.00;80.70
70947;DHT22;58605;48.700;8.760;2023-08-24T07:42:19;21.20;81.30
70947;DHT22;58605;48.700;8.760;2023-08-24T07:44:47;21.30;80.60
70947;DHT22;58605;48.700;8.760;2023-08-24T07:47:14;21.40;80.60
70947;DHT22;58605;48.700;8.760;2023-08-24T07:49:40;21.50;80.20
70947;DHT22;58605;48.700;8.760;2023-08-24T07:52:10;21.60;79.70
70947;DHT22;58605;48.700;8.760;2023-08-24T07:54:36;21.70;80.80
70947;DHT22;58605;48.700;8.760;2023-08-24T07:57:03;21.80;81.20
70947;DHT22;58605;48.700;8.760;2023-08-24T07:59:29;21.90;79.30
70947;DHT22;58605;48.700;8.760;2023-08-24T08:01:56;22.10;77.60
70947;DHT22;58605;48.700;8.760;2023-08-24T08:04:22;22.30;76.90
70947;DHT22;58605;48.700;8.760;2023-08-24T08:06:49;22.40;76.40
70947;DHT22;58605;48.700;8.760;2023-08-24T08:09:15;22.60;73.70
70947;DHT22;58605;48.700;8.760;2023-08-24T08:11:42;22.80;76.10
70947;DHT22;58605;48.700;8.760;2023-08-24T08:14:09;23.00;75.00
70947;DHT22;58605;48.700;8.760;2023-08-24T08:16:35;23.20;74.10
70947;DHT22;58605;48.700;8.760;2023-08-24T08:19:03;23.20;73.20
70947;DHT22;58605;48.700;8.760;2023-08-24T08:21:29;23.40;71.10
70947;DHT22;58605;48.700;8.760;2023-08-24T08:23:56;23.50;69.20
70947;DHT22;58605;48.700;8.760;2023-08-24T08:26:22;23.70;69.50
70947;DHT22;58605;48.700;8.760;2023-08-24T08:28:48;23.80;68.90
70947;DHT22;58605;48.700;8.760;2023-08-24T08:31:14;23.90;70.20
70947;DHT22;58605;48.700;8.760;2023-08-24T08:33:40;23.80;70.20
70947;DHT22;58605;48.700;8.760;2023-08-24T08:36:08;23.80;70.20
70947;DHT22;58605;48.700;8.760;2023-08-24T08:38:34;23.70;70.40
70947;DHT22;58605;48.700;8.760;2023-08-24T08:41:03;23.60;70.70
70947;DHT22;58605;48.700;8.760;2023-08-24T08:43:30;23.50;71.30
70947;DHT22;58605;48.700;8.760;2023-08-24T08:45:56;23.50;71.50
70947;DHT22;58605;48.700;8.760;2023-08-24T08:48:24;23.50;71.70
70947;DHT22;58605;48.700;8.760;2023-08-24T08:50:52;23.50;71.40
70947;DHT22;58605;48.700;8.760;2023-08-24T08:53:23;23.50;71.30
70947;DHT22;58605;48.700;8.760;2023-08-24T08:55:51;23.50;71.50
70947;DHT22;58605;48.700;8.760;2023-08-24T08:58:19;23.50;71.80
70947;DHT22;58605;48.700;8.760;2023-08-24T09:00:46;23.60;72.00
70947;DHT22;58605;48.700;8.760;2023-08-24T09:03:14;23.50;71.40
70947;DHT22;58605;48.700;8.760;2023-08-24T09:05:43;23.70;71.70
70947;DHT22;58605;48.700;8.760;2023-08-24T09:08:09;23.90;70.70
70947;DHT22;58605;48.700;8.760;2023-08-24T09:10:37;24.40;69.60
70947;DHT22;58605;48.700;8.760;2023-08-24T09:13:03;24.20;68.60
70947;DHT22;58605;48.700;8.760;2023-08-24T09:15:34;24.10;72.40
70947;DHT22;58605;48.700;8.760;2023-08-24T09:18:02;23.90;70.00
70947;DHT22;58605;48.700;8.760;2023-08-24T09:20:28;23.80;71.50
70947;DHT22;58605;48.700;8.760;2023-08-24T09:22:58;23.70;70.40
70947;DHT22;58605;48.700;8.760;2023-08-24T09:25:24;23.70;71.20
70947;DHT22;58605;48.700;8.760;2023-08-24T09:27:58;23.50;71.00
70947;DHT22;58605;48.700;8.760;2023-08-24T09:30:29;23.60;73.40
70947;DHT22;58605;48.700;8.760;2023-08-24T09:32:55;23.80;70.20
70947;DHT22;58605;48.700;8.760;2023-08-24T09:35:21;23.70;71.20
70947;DHT22;58605;48.700;8.760;2023-08-24T09:37:49;24.20;73.60
70947;DHT22;58605;48.700;8.760;2023-08-24T09:40:15;24.30;69.10
70947;DHT22;58605;48.700;8.760;2023-08-24T09:42:42;23.90;70.40
70947;DHT22;58605;48.700;8.760;2023-08-24T09:45:12;23.80;70.50
70947;DHT22;58605;48.700;8.760;2023-08-24T09:47:38;24.10;72.60
70947;DHT22;58605;48.700;8.760;2023-08-24T09:50:05;24.20;69.80
70947;DHT22;58605;48.700;8.760;2023-08-24T09:52:32;23.80;70.90
70947;DHT22;58605;48.700;8.760;2023-08-24T09:55:02;23.80;71.20
70947;DHT22;58605;48.700;8.760;2023-08-24T09:57:32;23.60;72.30
70947;DHT22;58605;48.700;8.760;2023-08-24T10:00:00;23.70;72.60
70947;DHT22;58605;48.700;8.760;2023-08-24T10:02:31;23.70;70.90
70947;DHT22;58605;48.700;8.760;2023-08-24T10:04:59;24.00;71.20
70947;DHT22;58605;48.700;8.760;2023-08-24T10:07:26;24.00;70.80
70947;DHT22;58605;48.700;8.760;2023-08-24T10:09:57;24.10;69.90
70947;DHT22;58605;48.700;8.760;2023-08-24T10:12:27;23.80;71.80
70947;DHT22;58605;48.700;8.760;2023-08-24T10:14:59;24.10;72.10
70947;DHT22;58605;48.700;8.760;2023-08-24T10:17:29;24.10;70.40
70947;DHT22;58605;48.700;8.760;2023-08-24T10:19:58;24.10;70.30
70947;DHT22;58605;48.700;8.760;2023-08-24T10:22:30;23.90;71.00
70947;DHT22;58605;48.700;8.760;2023-08-24T10:24:56;23.80;71.40
70947;DHT22;58605;48.700;8.760;2023-08-24T10:27:23;23.70;71.80
70947;DHT22;58605;48.700;8.760;2023-08-24T10:29:52;23.70;73.70
70947;DHT22;58605;48.700;8.760;2023-08-24T10:32:20;23.70;72.50
70947;DHT22;58605;48.700;8.760;2023-08-24T10:34:48;23.70;71.80
70947;DHT22;58605;48.700;8.760;2023-08-24T10:37:15;23.70;72.50
70947;DHT22;58605;48.700;8.760;2023-08-24T10:39:44;23.70;72.50
70947;DHT22;58605;48.700;8.760;2023-08-24T10:42:11;23.60;72.40
70947;DHT22;58605;48.700;8.760;2023-08-24T10:44:39;23.60;72.50
70947;DHT22;58605;48.700;8.760;2023-08-24T10:47:11;23.60;72.50
70947;DHT22;58605;48.700;8.760;2023-08-24T10:49:38;23.60;72.80
70947;DHT22;58605;48.700;8.760;2023-08-24T10:52:20;23.50;74.20
70947;DHT22;58605;48.700;8.760;2023-08-24T10:54:47;23.50;74.20
70947;DHT22;58605;48.700;8.760;2023-08-24T10:57:21;23.40;75.70
70947;DHT22;58605;48.700;8.760;2023-08-24T11:00:03;23.50;75.30
70947;DHT22;58605;48.700;8.760;2023-08-24T11:02:44;23.50;74.90
70947;DHT22;58605;48.700;8.760;2023-08-24T11:05:18;23.60;74.60
70947;DHT22;58605;48.700;8.760;2023-08-24T11:07:57;23.60;74.10
70947;DHT22;58605;48.700;8.760;2023-08-24T11:10:24;23.60;75.20
70947;DHT22;58605;48.700;8.760;2023-08-24T11:13:07;23.60;75.00
70947;DHT22;58605;48.700;8.760;2023-08-24T11:15:36;23.60;76.20
70947;DHT22;58605;48.700;8.760;2023-08-24T11:18:23;23.70;74.90
70947;DHT22;58605;48.700;8.760;2023-08-24T11:20:51;23.70;74.60
70947;DHT22;58605;48.700;8.760;2023-08-24T11:23:21;23.80;74.40
70947;DHT22;58605;48.700;8.760;2023-08-24T11:25:50;23.80;74.30
70947;DHT22;58605;48.700;8.760;2023-08-24T11:28:23;23.70;75.30
70947;DHT22;58605;48.700;8.760;2023-08-24T11:30:50;23.80;75.20
70947;DHT22;58605;48.700;8.760;2023-08-24T11:33:26;23.70;75.10
70947;DHT22;58605;48.700;8.760;2023-08-24T11:35:52;23.80;75.70
70947;DHT22;58605;48.700;8.760;2023-08-24T11:38:20;23.80;76.50
70947;DHT22;58605;48.700;8.760;2023-08-24T11:40:46;23.80;75.60
70947;DHT22;58605;48.700;8.760;2023-08-24T11:43:13;23.90;75.30
70947;DHT22;58605;48.700;8.760;2023-08-24T11:45:46;23.80;76.10
70947;DHT22;58605;48.700;8.760;2023-08-24T11:48:12;23.90;76.10
70947;DHT22;58605;48.700;8.760;2023-08-24T11:50:38;23.80;77.40
70947;DHT22;58605;48.700;8.760;2023-08-24T11:53:07;23.90;75.30
70947;DHT22;58605;48.700;8.760;2023-08-24T11:55:39;23.90;76.10
70947;DHT22;58605;48.700;8.760;2023-08-24T11:58:13;23.90;75.20
70947;DHT22;58605;48.700;8.760;2023-08-24T12:00:40;23.90;75.00
70947;DHT22;58605;48.700;8.760;2023-08-24T12:03:06;23.90;75.60
70947;DHT22;58605;48.700;8.760;2023-08-24T12:05:32;24.00;74.90
70947;DHT22;58605;48.700;8.760;2023-08-24T12:07:58;24.00;74.60
70947;DHT22;58605;48.700;8.760;2023-08-24T12:10:25;24.00;74.40
70947;DHT22;58605;48.700;8.760;2023-08-24T12:13:01;24.00;74.40
70947;DHT22;58605;48.700;8.760;2023-08-24T12:15:28;24.00;74.50
70947;DHT22;58605;48.700;8.760;2023-08-24T12:17:54;24.00;75.30
70947;DHT22;58605;48.700;8.760;2023-08-24T12:20:21;23.90;75.20
70947;DHT22;58605;48.700;8.760;2023-08-24T12:22:51;23.90;75.90
70947;DHT22;58605;48.700;8.760;2023-08-24T12:25:18;23.90;76.10
70947;DHT22;58605;48.700;8.760;2023-08-24T12:27:44;23.90;76.50
70947;DHT22;58605;48.700;8.760;2023-08-24T12:30:12;23.90;76.20
70947;DHT22;58605;48.700;8.760;2023-08-24T12:32:45;23.90;77.00
70947;DHT22;58605;48.700;8.760;2023-08-24T12:35:13;23.90;77.30
70947;DHT22;58605;48.700;8.760;2023-08-24T12:37:40;24.00;77.20
70947;DHT22;58605;48.700;8.760;2023-08-24T12:40:07;23.90;78.70
70947;DHT22;58605;48.700;8.760;2023-08-24T12:42:34;23.90;79.40
70947;DHT22;58605;48.700;8.760;2023-08-24T12:45:00;23.90;79.80
70947;DHT22;58605;48.700;8.760;2023-08-24T12:47:27;24.00;76.90
70947;DHT22;58605;48.700;8.760;2023-08-24T12:49:53;24.10;76.10
70947;DHT22;58605;48.700;8.760;2023-08-24T12:52:22;24.00;79.00
70947;DHT22;58605;48.700;8.760;2023-08-24T12:54:49;23.90;79.30
70947;DHT22;58605;48.700;8.760;2023-08-24T12:57:15;24.10;77.60
70947;DHT22;58605;48.700;8.760;2023-08-24T12:59:41;24.20;76.60
70947;DHT22;58605;48.700;8.760;2023-08-24T13:02:07;24.20;75.50
70947;DHT22;58605;48.700;8.760;2023-08-24T13:04:35;24.20;75.50
70947;DHT22;58605;48.700;8.760;2023-08-24T13:07:01;24.10;77.50
70947;DHT22;58605;48.700;8.760;2023-08-24T13:09:27;24.10;78.70
70947;DHT22;58605;48.700;8.760;2023-08-24T13:11:53;24.10;77.70
70947;DHT22;58605;48.700;8.760;2023-08-24T13:14:19;24.30;75.60
70947;DHT22;58605;48.700;8.760;2023-08-24T13:16:46;24.20;77.50
70947;DHT22;58605;48.700;8.760;2023-08-24T13:19:14;24.40;75.90
70947;DHT22;58605;48.700;8.760;2023-08-24T13:21:41;24.40;76.00
70947;DHT22;58605;48.700;8.760;2023-08-24T13:24:07;24.40;76.10
70947;DHT22;58605;48.700;8.760;2023-08-24T13:26:34;24.50;76.70
70947;DHT22;58605;48.700;8.760;2023-08-24T13:29:00;24.70;74.10
70947;DHT22;58605;48.700;8.760;2023-08-24T13:31:27;24.60;74.90
70947;DHT22;58605;48.700;8.760;2023-08-24T13:33:55;24.50;75.20
70947;DHT22;58605;48.700;8.760;2023-08-24T13:36:21;24.40;76.10
70947;DHT22;58605;48.700;8.760;2023-08-24T13:38:49;24.40;77.30
70947;DHT22;58605;48.700;8.760;2023-08-24T13:41:15;24.40;75.90
70947;DHT22;58605;48.700;8.760;2023-08-24T13:43:41;24.50;75.30
70947;DHT22;58605;48.700;8.760;2023-08-24T13:46:08;24.50;76.70
70947;DHT22;58605;48.700;8.760;2023-08-24T13:48:34;24.40;76.60
70947;DHT22;58605;48.700;8.760;2023-08-24T13:51:00;24.40;77.50
70947;DHT22;58605;48.700;8.760;2023-08-24T13:53:26;24.30;77.40
70947;DHT22;58605;48.700;8.760;2023-08-24T13:55:54;24.40;76.00
70947;DHT22;58605;48.700;8.760;2023-08-24T13:58:20;24.50;74.90
70947;DHT22;58605;48.700;8.760;2023-08-24T14:00:46;24.50;75.10
70947;DHT22;58605;48.700;8.760;2023-08-24T14:03:12;24.50;75.00
70947;DHT22;58605;48.700;8.760;2023-08-24T14:05:39;24.50;74.40
70947;DHT22;58605;48.700;8.760;2023-08-24T14:08:05;24.50;76.00
70947;DHT22;58605;48.700;8.760;2023-08-24T14:10:31;24.50;76.20
70947;DHT22;58605;48.700;8.760;2023-08-24T14:12:59;24.50;75.80
70947;DHT22;58605;48.700;8.760;2023-08-24T14:15:25;24.50;74.90
70947;DHT22;58605;48.700;8.760;2023-08-24T14:17:52;24.50;74.90
70947;DHT22;58605;48.700;8.760;2023-08-24T14:20:18;24.40;76.10
70947;DHT22;58605;48.700;8.760;2023-08-24T14:22:44;24.40;76.00
70947;DHT22;58605;48.700;8.760;2023-08-24T14:25:11;24.50;75.50
70947;DHT22;58605;48.700;8.760;2023-08-24T14:27:38;24.50;75.10
70947;DHT22;58605;48.700;8.760;2023-08-24T14:30:07;24.60;75.00
70947;DHT22;58605;48.700;8.760;2023-08-24T14:32:33;24.60;74.50
70947;DHT22;58605;48.700;8.760;2023-08-24T14:34:59;24.70;74.30
70947;DHT22;58605;48.700;8.760;2023-08-24T14:37:26;25.00;75.00
70947;DHT22;58605;48.700;8.760;2023-08-24T14:39:52;25.30;85.00
70947;DHT22;58605;48.700;8.760;2023-08-24T14:42:18;25.30;77.60
70947;DHT22;58605;48.700;8.760;2023-08-24T14:44:44;25.10;76.80
70947;DHT22;58605;48.700;8.760;2023-08-24T14:47:12;25.00;80.60
70947;DHT22;58605;48.700;8.760;2023-08-24T14:49:38;24.90;84.90
70947;DHT22;58605;48.700;8.760;2023-08-24T14:52:04;25.00;85.70
70947;DHT22;58605;48.700;8.760;2023-08-24T14:54:37;25.00;84.50
70947;DHT22;58605;48.700;8.760;2023-08-24T14:57:10;24.90;85.80
70947;DHT22;58605;48.700;8.760;2023-08-24T14:59:36;24.90;85.70
70947;DHT22;58605;48.700;8.760;2023-08-24T15:02:02;24.80;85.30
70947;DHT22;58605;48.700;8.760;2023-08-24T15:04:30;24.80;86.10
70947;DHT22;58605;48.700;8.760;2023-08-24T15:06:56;24.80;86.20
70947;DHT22;58605;48.700;8.760;2023-08-24T15:09:23;24.80;86.50
70947;DHT22;58605;48.700;8.760;2023-08-24T15:11:49;24.60;84.80
70947;DHT22;58605;48.700;8.760;2023-08-24T15:14:15;24.50;86.00
70947;DHT22;58605;48.700;8.760;2023-08-24T15:16:41;24.50;86.00
70947;DHT22;58605;48.700;8.760;2023-08-24T15:19:07;24.50;84.40
70947;DHT22;58605;48.700;8.760;2023-08-24T15:21:35;24.50;85.90
70947;DHT22;58605;48.700;8.760;2023-08-24T15:24:01;24.40;85.80
70947;DHT22;58605;48.700;8.760;2023-08-24T15:26:27;24.50;86.70
70947;DHT22;58605;48.700;8.760;2023-08-24T15:29:12;24.60;85.60
70947;DHT22;58605;48.700;8.760;2023-08-24T15:31:40;24.70;86.00
70947;DHT22;58605;48.700;8.760;2023-08-24T15:34:06;24.70;85.60